Time,TemperatureF,DewpointF,PressureIn,WindDirection,WindDirectionDegrees,WindSpeedMPH,WindSpeedGustMPH,Humidity,HourlyPrecipIn,Conditions,Clouds,dailyrainin,SoftwareType,DateUTC
2013-02-10 00:11:00,26.4,25.2,30.23,SW,225,0.0,-999.0,95,-99.99,,,0.00,Acu-Link.com,2013-02-10 05:11:00,
2013-02-10 00:27:00,26.1,25.1,30.23,SW,225,0.0,-999.0,96,-99.99,,,0.00,Acu-Link.com,2013-02-10 05:27:00,
2013-02-10 00:42:00,25.9,25.4,30.24,SW,225,0.0,-999.0,98,-99.99,,,0.00,Acu-Link.com,2013-02-10 05:42:00,
2013-02-10 00:57:00,25.3,24.6,30.23,SW,225,0.0,-999.0,97,-99.99,,,0.00,Acu-Link.com,2013-02-10 05:57:00,
2013-02-10 01:13:00,24.8,24.1,30.23,SW,225,0.0,-999.0,97,-99.99,,,0.00,Acu-Link.com,2013-02-10 06:13:00,
2013-02-10 01:28:00,24.8,24.6,30.23,SW,225,0.0,-999.0,99,-99.99,,,0.00,Acu-Link.com,2013-02-10 06:28:00,
2013-02-10 01:43:00,24.4,24.2,30.24,SW,225,0.0,-999.0,99,-99.99,,,0.00,Acu-Link.com,2013-02-10 06:43:00,
2013-02-10 01:59:00,24.3,23.6,30.24,SW,225,0.0,-999.0,97,-99.99,,,0.00,Acu-Link.com,2013-02-10 06:59:00,
2013-02-10 02:14:00,24.3,24.1,30.25,SW,225,0.0,-999.0,99,-99.99,,,0.00,Acu-Link.com,2013-02-10 07:14:00,
2013-02-10 02:29:00,24.1,23.9,30.26,SW,225,0.0,-999.0,99,-99.99,,,0.00,Acu-Link.com,2013-02-10 07:29:00,
2013-02-10 02:44:00,23.7,23.5,30.26,SW,225,0.0,-999.0,99,-99.99,,,0.00,Acu-Link.com,2013-02-10 07:44:00,
2013-02-10 03:00:00,23.2,23.0,30.27,SW,225,0.0,-999.0,99,-99.99,,,0.00,Acu-Link.com,2013-02-10 08:00:00,
2013-02-10 03:15:00,23.5,23.3,30.26,SW,225,0.0,-999.0,99,-99.99,,,0.00,Acu-Link.com,2013-02-10 08:15:00,
2013-02-10 03:30:00,23.2,23.0,30.26,SW,225,0.0,-999.0,99,-99.99,,,0.00,Acu-Link.com,2013-02-10 08:30:00,
2013-02-10 03:46:00,22.8,22.6,30.26,SW,225,0.0,-999.0,99,-99.99,,,0.00,Acu-Link.com,2013-02-10 08:46:00,
2013-02-10 04:01:00,23.0,22.8,30.27,SW,225,0.0,-999.0,99,-99.99,,,0.00,Acu-Link.com,2013-02-10 09:01:00,
2013-02-10 04:19:00,22.8,22.6,30.27,SW,225,0.0,-999.0,99,-99.99,,,0.00,Acu-Link.com,2013-02-10 09:19:00,
2013-02-10 04:34:00,22.6,22.4,30.27,SW,225,0.0,-999.0,99,-99.99,,,0.00,Acu-Link.com,2013-02-10 09:34:00,
2013-02-10 04:49:00,22.3,22.1,30.26,SW,225,0.0,-999.0,99,-99.99,,,0.00,Acu-Link.com,2013-02-10 09:49:00,
2013-02-10 05:04:00,22.8,22.6,30.27,SSE,157,0.0,-999.0,99,-99.99,,,0.00,Acu-Link.com,2013-02-10 10:04:00,
2013-02-10 05:20:00,23.0,22.8,30.27,SSE,157,0.0,-999.0,99,-99.99,,,0.00,Acu-Link.com,2013-02-10 10:20:00,
2013-02-10 05:35:00,23.2,23.0,30.27,SSE,157,0.0,-999.0,99,-99.99,,,0.00,Acu-Link.com,2013-02-10 10:35:00,
2013-02-10 05:50:00,23.5,23.3,30.29,SSE,157,0.0,-999.0,99,-99.99,,,0.00,Acu-Link.com,2013-02-10 10:50:00,
2013-02-10 06:05:00,25.5,24.8,30.29,SSE,157,0.0,-999.0,97,-99.99,,,0.00,Acu-Link.com,2013-02-10 11:05:00,
2013-02-10 06:21:00,26.1,24.4,30.29,SSE,157,0.0,-999.0,93,-99.99,,,0.00,Acu-Link.com,2013-02-10 11:21:00,
2013-02-10 06:36:00,25.0,23.8,30.29,SSE,157,0.0,-999.0,95,-99.99,,,0.00,Acu-Link.com,2013-02-10 11:36:00,
2013-02-10 06:51:00,24.6,22.9,30.30,SSE,157,0.0,-999.0,93,-99.99,,,0.00,Acu-Link.com,2013-02-10 11:51:00,
2013-02-10 07:07:00,25.7,23.4,30.31,SSE,157,0.0,-999.0,91,-99.99,,,0.00,Acu-Link.com,2013-02-10 12:07:00,
2013-02-10 07:22:00,24.8,22.8,30.32,SSE,157,0.0,-999.0,92,-99.99,,,0.00,Acu-Link.com,2013-02-10 12:22:00,
2013-02-10 07:37:00,27.5,25.0,30.34,SSE,157,2.2,-999.0,90,-99.99,,,0.00,Acu-Link.com,2013-02-10 12:37:00,
2013-02-10 07:53:00,26.2,25.0,30.33,SSE,157,0.0,-999.0,95,-99.99,,,0.00,Acu-Link.com,2013-02-10 12:53:00,
2013-02-10 08:08:00,27.1,25.9,30.34,SSE,157,0.0,-999.0,95,-99.99,,,0.00,Acu-Link.com,2013-02-10 13:08:00,
2013-02-10 08:23:00,28.4,25.3,30.35,SSE,157,0.0,-999.0,88,-99.99,,,0.00,Acu-Link.com,2013-02-10 13:23:00,
2013-02-10 08:38:00,30.0,24.6,30.34,East,90,2.2,-999.0,80,-99.99,,,0.00,Acu-Link.com,2013-02-10 13:38:00,
2013-02-10 08:54:00,34.5,22.8,30.34,ENE,67,2.2,-999.0,62,-99.99,,,0.00,Acu-Link.com,2013-02-10 13:54:00,
2013-02-10 09:09:00,35.2,22.7,30.35,East,90,3.7,-999.0,60,-99.99,,,0.00,Acu-Link.com,2013-02-10 14:09:00,
2013-02-10 09:24:00,36.3,22.5,30.36,East,90,4.2,-999.0,57,-99.99,,,0.00,Acu-Link.com,2013-02-10 14:24:00,
2013-02-10 09:40:00,38.7,23.1,30.35,East,90,2.7,-999.0,53,-99.99,,,0.00,Acu-Link.com,2013-02-10 14:40:00,
2013-02-10 09:55:00,39.4,24.6,30.35,NE,45,0.0,-999.0,55,-99.99,,,0.00,Acu-Link.com,2013-02-10 14:55:00,
2013-02-10 10:10:00,40.1,23.4,30.36,ENE,67,3.7,-999.0,51,-99.99,,,0.00,Acu-Link.com,2013-02-10 15:10:00,
2013-02-10 10:26:00,40.3,23.2,30.34,NNW,337,2.7,-999.0,50,-99.99,,,0.00,Acu-Link.com,2013-02-10 15:26:00,
2013-02-10 10:41:00,40.8,23.1,30.35,East,90,4.2,-999.0,49,-99.99,,,0.00,Acu-Link.com,2013-02-10 15:41:00,
2013-02-10 10:56:00,41.9,22.6,30.36,ENE,67,0.0,-999.0,46,-99.99,,,0.00,Acu-Link.com,2013-02-10 15:56:00,
2013-02-10 11:11:00,44.8,23.7,30.35,NE,45,3.2,-999.0,43,-99.99,,,0.00,Acu-Link.com,2013-02-10 16:11:00,
2013-02-10 11:27:00,45.7,20.3,30.34,NE,45,3.2,-999.0,36,-99.99,,,0.00,Acu-Link.com,2013-02-10 16:27:00,
2013-02-10 11:42:00,48.6,22.2,30.33,East,90,2.7,-999.0,35,-99.99,,,0.00,Acu-Link.com,2013-02-10 16:42:00,
2013-02-10 11:57:00,45.1,21.0,30.33,NE,45,4.2,-999.0,38,-99.99,,,0.00,Acu-Link.com,2013-02-10 16:57:00,
2013-02-10 12:13:00,45.9,22.4,30.31,West,270,1.7,-999.0,39,-99.99,,,0.00,Acu-Link.com,2013-02-10 17:13:00,
2013-02-10 12:28:00,45.7,21.6,30.31,SSW,202,1.1,-999.0,38,-99.99,,,0.00,Acu-Link.com,2013-02-10 17:28:00,
2013-02-10 12:43:00,46.0,21.8,30.29,East,90,2.7,-999.0,38,-99.99,,,0.00,Acu-Link.com,2013-02-10 17:43:00,
2013-02-10 12:59:00,47.3,23.0,30.28,ENE,67,6.3,-999.0,38,-99.99,,,0.00,Acu-Link.com,2013-02-10 17:59:00,
2013-02-10 13:14:00,48.6,22.9,30.27,ENE,67,5.8,-999.0,36,-99.99,,,0.00,Acu-Link.com,2013-02-10 18:14:00,
2013-02-10 13:29:00,49.1,23.3,30.26,ENE,67,6.3,-999.0,36,-99.99,,,0.00,Acu-Link.com,2013-02-10 18:29:00,
2013-02-10 13:45:00,50.2,22.9,30.25,ESE,112,5.8,-999.0,34,-99.99,,,0.00,Acu-Link.com,2013-02-10 18:45:00,
2013-02-10 14:00:00,50.7,21.9,30.24,ENE,67,10.4,-999.0,32,-99.99,,,0.00,Acu-Link.com,2013-02-10 19:00:00,
2013-02-10 14:15:00,51.1,20.8,30.24,ESE,112,4.2,-999.0,30,-99.99,,,0.00,Acu-Link.com,2013-02-10 19:15:00,
2013-02-10 14:30:00,52.5,20.4,30.23,NE,45,4.2,-999.0,28,-99.99,,,0.00,Acu-Link.com,2013-02-10 19:30:00,
2013-02-10 14:45:00,52.5,22.0,30.21,East,90,1.7,-999.0,30,-99.99,,,0.00,Acu-Link.com,2013-02-10 19:45:00,
2013-02-10 15:00:00,52.5,22.0,30.20,ENE,67,7.3,-999.0,30,-99.99,,,0.00,Acu-Link.com,2013-02-10 20:00:00,
2013-02-10 15:16:00,52.0,22.3,30.20,NE,45,2.7,-999.0,31,-99.99,,,0.00,Acu-Link.com,2013-02-10 20:16:00,
2013-02-10 15:31:00,51.6,21.2,30.19,NE,45,4.7,-999.0,30,-99.99,,,0.00,Acu-Link.com,2013-02-10 20:31:00,
2013-02-10 15:46:00,51.8,22.1,30.19,NE,45,5.3,-999.0,31,-99.99,,,0.00,Acu-Link.com,2013-02-10 20:46:00,
2013-02-10 16:02:00,52.7,21.4,30.19,NE,45,4.2,-999.0,29,-99.99,,,0.00,Acu-Link.com,2013-02-10 21:02:00,
2013-02-10 16:17:00,52.9,22.3,30.19,ENE,67,6.3,-999.0,30,-99.99,,,0.00,Acu-Link.com,2013-02-10 21:17:00,
2013-02-10 16:32:00,53.1,22.5,30.20,NE,45,4.2,-999.0,30,-99.99,,,0.00,Acu-Link.com,2013-02-10 21:32:00,
2013-02-10 16:48:00,52.0,23.8,30.19,South,180,1.1,-999.0,33,-99.99,,,0.00,Acu-Link.com,2013-02-10 21:48:00,
2013-02-10 17:03:00,51.4,22.5,30.18,ENE,67,3.2,-999.0,32,-99.99,,,0.00,Acu-Link.com,2013-02-10 22:03:00,
2013-02-10 17:18:00,51.1,23.0,30.18,ENE,67,3.2,-999.0,33,-99.99,,,0.00,Acu-Link.com,2013-02-10 22:18:00,
2013-02-10 17:33:00,50.5,23.2,30.18,East,90,2.2,-999.0,34,-99.99,,,0.00,Acu-Link.com,2013-02-10 22:33:00,
2013-02-10 17:49:00,49.6,23.1,30.18,East,90,2.2,-999.0,35,-99.99,,,0.00,Acu-Link.com,2013-02-10 22:49:00,
2013-02-10 18:04:00,48.7,23.6,30.17,East,90,2.7,-999.0,37,-99.99,,,0.00,Acu-Link.com,2013-02-10 23:04:00,
2013-02-10 18:19:00,48.4,24.0,30.15,East,90,4.2,-999.0,38,-99.99,,,0.00,Acu-Link.com,2013-02-10 23:19:00,
2013-02-10 18:34:00,48.0,24.2,30.15,ENE,67,1.7,-999.0,39,-99.99,,,0.00,Acu-Link.com,2013-02-10 23:34:00,
2013-02-10 18:50:00,47.7,25.2,30.16,ENE,67,2.7,-999.0,41,-99.99,,,0.00,Acu-Link.com,2013-02-10 23:50:00,
2013-02-10 19:05:00,47.7,24.6,30.16,NE,45,3.2,-999.0,40,-99.99,,,0.00,Acu-Link.com,2013-02-11 00:05:00,
2013-02-10 19:20:00,47.8,24.7,30.17,ENE,67,2.2,-999.0,40,-99.99,,,0.00,Acu-Link.com,2013-02-11 00:20:00,
2013-02-10 19:36:00,46.6,25.3,30.17,ENE,67,0.0,-999.0,43,-99.99,,,0.00,Acu-Link.com,2013-02-11 00:36:00,
2013-02-10 19:51:00,46.8,24.9,30.17,East,90,0.0,-999.0,42,-99.99,,,0.00,Acu-Link.com,2013-02-11 00:51:00,
2013-02-10 20:06:00,47.7,24.6,30.17,ENE,67,3.2,-999.0,40,-99.99,,,0.00,Acu-Link.com,2013-02-11 01:06:00,
2013-02-10 20:21:00,47.8,24.7,30.17,ENE,67,3.7,-999.0,40,-99.99,,,0.00,Acu-Link.com,2013-02-11 01:21:00,
2013-02-10 20:37:00,48.2,24.4,30.17,ESE,112,3.2,-999.0,39,-99.99,,,0.00,Acu-Link.com,2013-02-11 01:37:00,
2013-02-10 20:52:00,48.6,24.8,30.17,ENE,67,2.7,-999.0,39,-99.99,,,0.00,Acu-Link.com,2013-02-11 01:52:00,
2013-02-10 21:07:00,49.1,25.2,30.17,East,90,4.2,-999.0,39,-99.99,,,0.00,Acu-Link.com,2013-02-11 02:07:00,
2013-02-10 21:23:00,49.1,25.2,30.17,NNE,22,2.7,-999.0,39,-99.99,,,0.00,Acu-Link.com,2013-02-11 02:23:00,
2013-02-10 21:38:00,49.1,27.0,30.17,ENE,67,2.2,-999.0,42,-99.99,,,0.00,Acu-Link.com,2013-02-11 02:38:00,
2013-02-10 21:53:00,49.1,27.0,30.18,ENE,67,3.7,-999.0,42,-99.99,,,0.00,Acu-Link.com,2013-02-11 02:53:00,
2013-02-10 22:09:00,49.1,29.2,30.18,ENE,67,1.1,-999.0,46,-99.99,,,0.00,Acu-Link.com,2013-02-11 03:09:00,
2013-02-10 22:24:00,48.9,31.1,30.17,ENE,67,2.7,-999.0,50,-99.99,,,0.00,Acu-Link.com,2013-02-11 03:24:00,
2013-02-10 22:39:00,48.9,32.1,30.16,ESE,112,5.3,-999.0,52,-99.99,,,0.00,Acu-Link.com,2013-02-11 03:39:00,
2013-02-10 22:55:00,46.6,38.4,30.15,ENE,67,3.7,-999.0,73,-99.99,,,0.00,Acu-Link.com,2013-02-11 03:55:00,
2013-02-10 23:10:00,45.3,39.8,30.12,ENE,67,5.3,-999.0,81,-99.99,,,0.01,Acu-Link.com,2013-02-11 04:10:00,
2013-02-10 23:25:00,45.0,41.4,30.10,NE,45,4.2,-999.0,87,-99.99,,,0.02,Acu-Link.com,2013-02-11 04:25:00,
2013-02-10 23:40:00,45.0,42.2,30.08,ENE,67,4.2,-999.0,90,-99.99,,,0.02,Acu-Link.com,2013-02-11 04:40:00,
2013-02-10 23:56:00,45.1,42.9,30.08,ENE,67,5.3,-999.0,92,-99.99,,,0.02,Acu-Link.com,2013-02-11 04:56:00,